sensor_id;sensor_type;location;lat;lon;timestamp;P1;durP1;ratioP1;P2;durP2;ratioP2
13797;SDS011;6970;51.340;3.240;2024-02-28T00:00:59;12.43;;;3.55;;
13797;SDS011;6970;51.340;3.240;2024-02-28T00:03:27;10.15;;;3.30;;
13797;SDS011;6970;51.340;3.240;2024-02-28T00:05:55;8.13;;;3.53;;
13797;SDS011;6970;51.340;3.240;2024-02-28T00:08:24;11.23;;;3.97;;
13797;SDS011;6970;51.340;3.240;2024-02-28T00:10:52;8.23;;;3.20;;
13797;SDS011;6970;51.340;3.240;2024-02-28T00:13:23;9.02;;;3.45;;
13797;SDS011;6970;51.340;3.240;2024-02-28T00:15:54;7.97;;;3.60;;
13797;SDS011;6970;51.340;3.240;2024-02-28T00:18:23;9.15;;;4.43;;
13797;SDS011;6970;51.340;3.240;2024-02-28T00:20:53;7.60;;;4.00;;
13797;SDS011;6970;51.340;3.240;2024-02-28T00:23:20;11.20;;;4.22;;
13797;SDS011;6970;51.340;3.240;2024-02-28T00:25:50;9.18;;;3.70;;
13797;SDS011;6970;51.340;3.240;2024-02-28T00:28:19;11.20;;;4.03;;
13797;SDS011;6970;51.340;3.240;2024-02-28T00:30:47;8.75;;;4.03;;
13797;SDS011;6970;51.340;3.240;2024-02-28T00:33:15;9.40;;;3.78;;
13797;SDS011;6970;51.340;3.240;2024-02-28T00:35:45;8.38;;;3.58;;
13797;SDS011;6970;51.340;3.240;2024-02-28T00:38:13;9.48;;;3.90;;
13797;SDS011;6970;51.340;3.240;2024-02-28T00:40:43;8.27;;;3.72;;
13797;SDS011;6970;51.340;3.240;2024-02-28T00:43:11;9.07;;;3.88;;
13797;SDS011;6970;51.340;3.240;2024-02-28T00:45:40;9.80;;;4.07;;
13797;SDS011;6970;51.340;3.240;2024-02-28T00:48:14;11.13;;;4.05;;
13797;SDS011;6970;51.340;3.240;2024-02-28T00:50:41;8.15;;;3.33;;
13797;SDS011;6970;51.340;3.240;2024-02-28T00:53:08;8.45;;;4.32;;
13797;SDS011;6970;51.340;3.240;2024-02-28T00:55:37;9.88;;;3.50;;
13797;SDS011;6970;51.340;3.240;2024-02-28T00:58:04;10.13;;;3.45;;
13797;SDS011;6970;51.340;3.240;2024-02-28T01:00:32;9.23;;;3.25;;
13797;SDS011;6970;51.340;3.240;2024-02-28T01:03:03;9.68;;;3.60;;
13797;SDS011;6970;51.340;3.240;2024-02-28T01:08:03;11.95;;;4.15;;
13797;SDS011;6970;51.340;3.240;2024-02-28T01:10:33;11.10;;;3.60;;
13797;SDS011;6970;51.340;3.240;2024-02-28T01:13:03;12.50;;;3.78;;
13797;SDS011;6970;51.340;3.240;2024-02-28T01:15:33;9.02;;;3.30;;
13797;SDS011;6970;51.340;3.240;2024-02-28T01:23:04;9.38;;;3.63;;
13797;SDS011;6970;51.340;3.240;2024-02-28T01:25:33;8.45;;;3.45;;
13797;SDS011;6970;51.340;3.240;2024-02-28T01:28:04;11.55;;;4.15;;
13797;SDS011;6970;51.340;3.240;2024-02-28T01:30:32;9.43;;;3.50;;
13797;SDS011;6970;51.340;3.240;2024-02-28T01:32:59;9.43;;;3.38;;
13797;SDS011;6970;51.340;3.240;2024-02-28T01:35:28;8.38;;;3.60;;
13797;SDS011;6970;51.340;3.240;2024-02-28T01:37:57;8.23;;;3.65;;
13797;SDS011;6970;51.340;3.240;2024-02-28T01:40:24;8.98;;;3.85;;
13797;SDS011;6970;51.340;3.240;2024-02-28T01:42:54;7.45;;;3.63;;
13797;SDS011;6970;51.340;3.240;2024-02-28T01:45:21;8.95;;;3.40;;
13797;SDS011;6970;51.340;3.240;2024-02-28T01:47:49;9.90;;;3.85;;
13797;SDS011;6970;51.340;3.240;2024-02-28T01:50:16;9.07;;;3.83;;
13797;SDS011;6970;51.340;3.240;2024-02-28T01:52:44;9.57;;;3.17;;
13797;SDS011;6970;51.340;3.240;2024-02-28T01:57:45;9.77;;;3.70;;
13797;SDS011;6970;51.340;3.240;2024-02-28T02:00:12;11.10;;;3.85;;
13797;SDS011;6970;51.340;3.240;2024-02-28T02:02:42;9.23;;;3.53;;
13797;SDS011;6970;51.340;3.240;2024-02-28T02:05:09;13.13;;;3.50;;
13797;SDS011;6970;51.340;3.240;2024-02-28T02:07:38;10.07;;;3.10;;
13797;SDS011;6970;51.340;3.240;2024-02-28T02:10:08;7.82;;;3.33;;
13797;SDS011;6970;51.340;3.240;2024-02-28T02:12:38;11.57;;;3.90;;
13797;SDS011;6970;51.340;3.240;2024-02-28T02:15:12;8.25;;;3.53;;
13797;SDS011;6970;51.340;3.240;2024-02-28T02:17:40;9.45;;;3.45;;
13797;SDS011;6970;51.340;3.240;2024-02-28T02:22:43;11.82;;;4.00;;
13797;SDS011;6970;51.340;3.240;2024-02-28T02:27:42;9.00;;;4.05;;
13797;SDS011;6970;51.340;3.240;2024-02-28T02:30:10;8.13;;;3.70;;
13797;SDS011;6970;51.340;3.240;2024-02-28T02:32:41;10.85;;;4.28;;
13797;SDS011;6970;51.340;3.240;2024-02-28T02:35:08;13.18;;;4.60;;
13797;SDS011;6970;51.340;3.240;2024-02-28T02:37:35;12.27;;;4.88;;
13797;SDS011;6970;51.340;3.240;2024-02-28T02:45:09;12.38;;;5.13;;
13797;SDS011;6970;51.340;3.240;2024-02-28T02:47:38;9.75;;;4.57;;
13797;SDS011;6970;51.340;3.240;2024-02-28T02:50:07;9.80;;;3.40;;
13797;SDS011;6970;51.340;3.240;2024-02-28T02:55:04;9.20;;;4.53;;
13797;SDS011;6970;51.340;3.240;2024-02-28T02:57:32;12.73;;;4.07;;
13797;SDS011;6970;51.340;3.240;2024-02-28T03:00:03;10.23;;;4.20;;
13797;SDS011;6970;51.340;3.240;2024-02-28T03:02:31;8.00;;;3.60;;
13797;SDS011;6970;51.340;3.240;2024-02-28T03:04:58;10.23;;;4.30;;
13797;SDS011;6970;51.340;3.240;2024-02-28T03:07:31;11.48;;;4.18;;
13797;SDS011;6970;51.340;3.240;2024-02-28T03:12:30;11.73;;;4.35;;
13797;SDS011;6970;51.340;3.240;2024-02-28T03:14:58;8.85;;;4.47;;
13797;SDS011;6970;51.340;3.240;2024-02-28T03:17:27;9.93;;;4.28;;
13797;SDS011;6970;51.340;3.240;2024-02-28T03:20:00;12.55;;;4.72;;
13797;SDS011;6970;51.340;3.240;2024-02-28T03:24:57;11.40;;;4.32;;
13797;SDS011;6970;51.340;3.240;2024-02-28T03:29:56;12.05;;;5.05;;
13797;SDS011;6970;51.340;3.240;2024-02-28T03:32:25;13.82;;;5.72;;
13797;SDS011;6970;51.340;3.240;2024-02-28T03:34:59;11.80;;;5.20;;
13797;SDS011;6970;51.340;3.240;2024-02-28T03:37:28;15.18;;;5.25;;
13797;SDS011;6970;51.340;3.240;2024-02-28T03:39:56;13.48;;;5.10;;
13797;SDS011;6970;51.340;3.240;2024-02-28T03:42:26;12.30;;;5.38;;
13797;SDS011;6970;51.340;3.240;2024-02-28T03:44:55;11.60;;;5.40;;
13797;SDS011;6970;51.340;3.240;2024-02-28T03:47:23;10.68;;;5.35;;
13797;SDS011;6970;51.340;3.240;2024-02-28T03:49:51;15.75;;;5.82;;
13797;SDS011;6970;51.340;3.240;2024-02-28T03:52:20;9.25;;;4.47;;
13797;SDS011;6970;51.340;3.240;2024-02-28T03:54:49;12.43;;;4.88;;
13797;SDS011;6970;51.340;3.240;2024-02-28T03:57:16;11.85;;;5.10;;
13797;SDS011;6970;51.340;3.240;2024-02-28T03:59:44;12.27;;;5.35;;
13797;SDS011;6970;51.340;3.240;2024-02-28T04:02:11;12.10;;;4.63;;
13797;SDS011;6970;51.340;3.240;2024-02-28T04:04:38;12.27;;;5.25;;
13797;SDS011;6970;51.340;3.240;2024-02-28T04:07:05;12.10;;;4.53;;
13797;SDS011;6970;51.340;3.240;2024-02-28T04:09:33;10.57;;;5.20;;
13797;SDS011;6970;51.340;3.240;2024-02-28T04:12:02;11.32;;;5.07;;
13797;SDS011;6970;51.340;3.240;2024-02-28T04:14:30;11.55;;;5.35;;
13797;SDS011;6970;51.340;3.240;2024-02-28T04:16:58;11.02;;;5.13;;
13797;SDS011;6970;51.340;3.240;2024-02-28T04:19:25;10.00;;;4.65;;
13797;SDS011;6970;51.340;3.240;2024-02-28T04:24:22;13.43;;;5.68;;
13797;SDS011;6970;51.340;3.240;2024-02-28T04:29:21;12.10;;;5.85;;
13797;SDS011;6970;51.340;3.240;2024-02-28T04:31:50;12.27;;;5.63;;
13797;SDS011;6970;51.340;3.240;2024-02-28T04:34:17;12.40;;;5.63;;
13797;SDS011;6970;51.340;3.240;2024-02-28T04:36:44;14.52;;;6.25;;
13797;SDS011;6970;51.340;3.240;2024-02-28T04:39:14;15.15;;;5.90;;
13797;SDS011;6970;51.340;3.240;2024-02-28T04:41:42;14.00;;;6.75;;
13797;SDS011;6970;51.340;3.240;2024-02-28T04:44:10;15.40;;;6.07;;
13797;SDS011;6970;51.340;3.240;2024-02-28T04:46:39;17.15;;;7.25;;
13797;SDS011;6970;51.340;3.240;2024-02-28T04:49:08;17.98;;;7.15;;
13797;SDS011;6970;51.340;3.240;2024-02-28T04:54:09;17.23;;;7.57;;
13797;SDS011;6970;51.340;3.240;2024-02-28T04:56:42;19.77;;;6.53;;
13797;SDS011;6970;51.340;3.240;2024-02-28T04:59:12;16.15;;;8.13;;
13797;SDS011;6970;51.340;3.240;2024-02-28T05:04:12;18.45;;;7.55;;
13797;SDS011;6970;51.340;3.240;2024-02-28T05:06:40;20.00;;;8.00;;
13797;SDS011;6970;51.340;3.240;2024-02-28T05:14:12;23.40;;;9.25;;
13797;SDS011;6970;51.340;3.240;2024-02-28T05:16:42;23.58;;;9.18;;
13797;SDS011;6970;51.340;3.240;2024-02-28T05:19:09;19.20;;;8.50;;
13797;SDS011;6970;51.340;3.240;2024-02-28T05:21:40;20.58;;;8.02;;
13797;SDS011;6970;51.340;3.240;2024-02-28T05:24:10;18.77;;;7.95;;
13797;SDS011;6970;51.340;3.240;2024-02-28T05:26:41;19.90;;;8.07;;
13797;SDS011;6970;51.340;3.240;2024-02-28T05:29:11;25.40;;;8.23;;
13797;SDS011;6970;51.340;3.240;2024-02-28T05:31:38;20.45;;;8.15;;
13797;SDS011;6970;51.340;3.240;2024-02-28T05:34:05;21.08;;;8.48;;
13797;SDS011;6970;51.340;3.240;2024-02-28T05:36:33;20.48;;;8.30;;
13797;SDS011;6970;51.340;3.240;2024-02-28T05:39:00;24.52;;;9.02;;
13797;SDS011;6970;51.340;3.240;2024-02-28T05:41:28;16.13;;;7.35;;
13797;SDS011;6970;51.340;3.240;2024-02-28T05:43:55;18.80;;;8.77;;
13797;SDS011;6970;51.340;3.240;2024-02-28T05:46:25;18.05;;;8.98;;
13797;SDS011;6970;51.340;3.240;2024-02-28T05:51:22;17.02;;;8.45;;
13797;SDS011;6970;51.340;3.240;2024-02-28T05:53:51;17.52;;;7.78;;
13797;SDS011;6970;51.340;3.240;2024-02-28T05:56:19;18.05;;;8.52;;
13797;SDS011;6970;51.340;3.240;2024-02-28T06:01:17;21.35;;;8.48;;
13797;SDS011;6970;51.340;3.240;2024-02-28T06:03:49;18.25;;;8.05;;
13797;SDS011;6970;51.340;3.240;2024-02-28T06:06:23;22.60;;;8.63;;
13797;SDS011;6970;51.340;3.240;2024-02-28T06:11:20;19.08;;;9.60;;
13797;SDS011;6970;51.340;3.240;2024-02-28T06:13:50;22.33;;;9.32;;
13797;SDS011;6970;51.340;3.240;2024-02-28T06:16:20;22.70;;;10.07;;
13797;SDS011;6970;51.340;3.240;2024-02-28T06:18:48;21.83;;;9.07;;
13797;SDS011;6970;51.340;3.240;2024-02-28T06:21:21;20.00;;;9.05;;
13797;SDS011;6970;51.340;3.240;2024-02-28T06:23:52;23.88;;;9.98;;
13797;SDS011;6970;51.340;3.240;2024-02-28T06:26:19;24.40;;;9.43;;
13797;SDS011;6970;51.340;3.240;2024-02-28T06:28:47;21.80;;;8.80;;
13797;SDS011;6970;51.340;3.240;2024-02-28T06:31:17;22.95;;;9.15;;
13797;SDS011;6970;51.340;3.240;2024-02-28T06:33:49;22.05;;;8.68;;
13797;SDS011;6970;51.340;3.240;2024-02-28T06:38:46;23.98;;;9.85;;
13797;SDS011;6970;51.340;3.240;2024-02-28T06:41:13;26.73;;;9.73;;
13797;SDS011;6970;51.340;3.240;2024-02-28T06:43:43;25.95;;;9.70;;
13797;SDS011;6970;51.340;3.240;2024-02-28T06:46:13;28.17;;;11.50;;
13797;SDS011;6970;51.340;3.240;2024-02-28T06:48:45;25.63;;;9.50;;
13797;SDS011;6970;51.340;3.240;2024-02-28T06:51:16;29.48;;;10.32;;
13797;SDS011;6970;51.340;3.240;2024-02-28T06:53:46;28.70;;;9.73;;
13797;SDS011;6970;51.340;3.240;2024-02-28T06:56:13;25.80;;;10.98;;
13797;SDS011;6970;51.340;3.240;2024-02-28T06:58:41;28.58;;;12.00;;
13797;SDS011;6970;51.340;3.240;2024-02-28T07:01:12;26.95;;;10.43;;
13797;SDS011;6970;51.340;3.240;2024-02-28T07:08:39;26.08;;;9.32;;
13797;SDS011;6970;51.340;3.240;2024-02-28T07:11:16;28.60;;;12.07;;
13797;SDS011;6970;51.340;3.240;2024-02-28T07:13:43;29.27;;;10.98;;
13797;SDS011;6970;51.340;3.240;2024-02-28T07:16:11;28.65;;;10.23;;
13797;SDS011;6970;51.340;3.240;2024-02-28T07:18:38;24.33;;;10.90;;
13797;SDS011;6970;51.340;3.240;2024-02-28T07:21:06;27.60;;;11.38;;
13797;SDS011;6970;51.340;3.240;2024-02-28T07:23:39;26.20;;;10.13;;
13797;SDS011;6970;51.340;3.240;2024-02-28T07:26:13;26.55;;;10.60;;
13797;SDS011;6970;51.340;3.240;2024-02-28T07:31:23;25.70;;;10.70;;
13797;SDS011;6970;51.340;3.240;2024-02-28T07:33:51;24.27;;;10.60;;
13797;SDS011;6970;51.340;3.240;2024-02-28T07:36:21;26.60;;;10.82;;
13797;SDS011;6970;51.340;3.240;2024-02-28T07:38:50;30.95;;;11.05;;
13797;SDS011;6970;51.340;3.240;2024-02-28T07:41:19;22.98;;;9.27;;
13797;SDS011;6970;51.340;3.240;2024-02-28T07:43:47;23.85;;;10.43;;
13797;SDS011;6970;51.340;3.240;2024-02-28T07:46:15;25.23;;;9.90;;
13797;SDS011;6970;51.340;3.240;2024-02-28T07:48:43;24.05;;;10.65;;
13797;SDS011;6970;51.340;3.240;2024-02-28T07:51:10;26.00;;;10.10;;
13797;SDS011;6970;51.340;3.240;2024-02-28T07:56:15;20.55;;;9.80;;
13797;SDS011;6970;51.340;3.240;2024-02-28T08:01:17;28.52;;;10.30;;
13797;SDS011;6970;51.340;3.240;2024-02-28T08:03:44;28.73;;;10.52;;
13797;SDS011;6970;51.340;3.240;2024-02-28T08:06:15;29.05;;;11.02;;
13797;SDS011;6970;51.340;3.240;2024-02-28T08:13:47;26.58;;;10.88;;
13797;SDS011;6970;51.340;3.240;2024-02-28T08:16:15;26.10;;;10.45;;
13797;SDS011;6970;51.340;3.240;2024-02-28T08:18:42;29.77;;;10.63;;
13797;SDS011;6970;51.340;3.240;2024-02-28T08:21:09;24.42;;;10.63;;
13797;SDS011;6970;51.340;3.240;2024-02-28T08:23:37;31.13;;;10.80;;
13797;SDS011;6970;51.340;3.240;2024-02-28T08:26:07;30.58;;;10.77;;
13797;SDS011;6970;51.340;3.240;2024-02-28T08:28:37;30.17;;;11.63;;
13797;SDS011;6970;51.340;3.240;2024-02-28T08:31:04;27.80;;;11.27;;
13797;SDS011;6970;51.340;3.240;2024-02-28T08:33:31;26.00;;;10.30;;
13797;SDS011;6970;51.340;3.240;2024-02-28T08:36:01;26.92;;;10.95;;
13797;SDS011;6970;51.340;3.240;2024-02-28T08:38:32;28.40;;;11.05;;
13797;SDS011;6970;51.340;3.240;2024-02-28T08:43:29;25.67;;;11.73;;
13797;SDS011;6970;51.340;3.240;2024-02-28T08:45:57;25.17;;;10.77;;
13797;SDS011;6970;51.340;3.240;2024-02-28T08:48:25;29.98;;;11.70;;
13797;SDS011;6970;51.340;3.240;2024-02-28T08:53:25;24.55;;;11.02;;
13797;SDS011;6970;51.340;3.240;2024-02-28T08:58:26;26.00;;;10.20;;
13797;SDS011;6970;51.340;3.240;2024-02-28T09:00:54;18.40;;;9.23;;
13797;SDS011;6970;51.340;3.240;2024-02-28T09:05:52;18.77;;;8.23;;
13797;SDS011;6970;51.340;3.240;2024-02-28T09:08:21;21.48;;;9.20;;
13797;SDS011;6970;51.340;3.240;2024-02-28T09:10:49;19.08;;;7.60;;
13797;SDS011;6970;51.340;3.240;2024-02-28T09:13:17;15.82;;;8.20;;
13797;SDS011;6970;51.340;3.240;2024-02-28T09:15:45;19.30;;;7.97;;
13797;SDS011;6970;51.340;3.240;2024-02-28T09:18:13;16.73;;;8.40;;
13797;SDS011;6970;51.340;3.240;2024-02-28T09:20:43;18.08;;;8.80;;
13797;SDS011;6970;51.340;3.240;2024-02-28T09:25:41;15.00;;;7.20;;
13797;SDS011;6970;51.340;3.240;2024-02-28T09:28:09;17.35;;;7.30;;
13797;SDS011;6970;51.340;3.240;2024-02-28T09:30:42;15.38;;;7.15;;
13797;SDS011;6970;51.340;3.240;2024-02-28T09:33:19;14.98;;;6.32;;
13797;SDS011;6970;51.340;3.240;2024-02-28T09:35:47;12.88;;;7.10;;
13797;SDS011;6970;51.340;3.240;2024-02-28T09:38:14;14.00;;;5.78;;
13797;SDS011;6970;51.340;3.240;2024-02-28T09:40:45;14.25;;;6.80;;
13797;SDS011;6970;51.340;3.240;2024-02-28T09:43:31;12.18;;;6.28;;
13797;SDS011;6970;51.340;3.240;2024-02-28T09:46:07;12.30;;;5.90;;
13797;SDS011;6970;51.340;3.240;2024-02-28T09:48:41;12.65;;;5.95;;
13797;SDS011;6970;51.340;3.240;2024-02-28T09:53:45;12.18;;;5.35;;
13797;SDS011;6970;51.340;3.240;2024-02-28T09:56:12;11.75;;;5.50;;
13797;SDS011;6970;51.340;3.240;2024-02-28T09:58:39;11.05;;;5.78;;
13797;SDS011;6970;51.340;3.240;2024-02-28T10:01:18;12.32;;;5.55;;
13797;SDS011;6970;51.340;3.240;2024-02-28T10:03:48;14.68;;;5.72;;
13797;SDS011;6970;51.340;3.240;2024-02-28T10:06:21;12.73;;;6.03;;
13797;SDS011;6970;51.340;3.240;2024-02-28T10:08:49;12.32;;;5.07;;
13797;SDS011;6970;51.340;3.240;2024-02-28T10:11:23;9.77;;;5.53;;
13797;SDS011;6970;51.340;3.240;2024-02-28T10:13:54;12.63;;;5.72;;
13797;SDS011;6970;51.340;3.240;2024-02-28T10:18:51;12.43;;;6.30;;
13797;SDS011;6970;51.340;3.240;2024-02-28T10:21:22;13.10;;;6.18;;
13797;SDS011;6970;51.340;3.240;2024-02-28T10:23:50;10.02;;;5.95;;
13797;SDS011;6970;51.340;3.240;2024-02-28T10:26:17;14.73;;;5.85;;
13797;SDS011;6970;51.340;3.240;2024-02-28T10:28:48;10.00;;;6.55;;
13797;SDS011;6970;51.340;3.240;2024-02-28T10:31:18;11.63;;;5.93;;
13797;SDS011;6970;51.340;3.240;2024-02-28T10:33:47;13.52;;;5.63;;
13797;SDS011;6970;51.340;3.240;2024-02-28T10:36:17;12.63;;;5.70;;
13797;SDS011;6970;51.340;3.240;2024-02-28T10:38:47;17.20;;;6.60;;
13797;SDS011;6970;51.340;3.240;2024-02-28T10:41:14;10.60;;;5.13;;
13797;SDS011;6970;51.340;3.240;2024-02-28T10:43:42;11.07;;;5.45;;
13797;SDS011;6970;51.340;3.240;2024-02-28T10:46:10;15.10;;;6.47;;
13797;SDS011;6970;51.340;3.240;2024-02-28T10:49:04;10.35;;;5.47;;
13797;SDS011;6970;51.340;3.240;2024-02-28T10:51:35;10.20;;;5.78;;
13797;SDS011;6970;51.340;3.240;2024-02-28T10:54:12;11.65;;;5.35;;
13797;SDS011;6970;51.340;3.240;2024-02-28T10:56:43;11.35;;;6.32;;
13797;SDS011;6970;51.340;3.240;2024-02-28T10:59:13;11.82;;;6.15;;
13797;SDS011;6970;51.340;3.240;2024-02-28T11:01:41;12.13;;;5.35;;
13797;SDS011;6970;51.340;3.240;2024-02-28T11:04:11;12.20;;;5.53;;
13797;SDS011;6970;51.340;3.240;2024-02-28T11:06:53;13.30;;;5.82;;
13797;SDS011;6970;51.340;3.240;2024-02-28T11:11:58;10.18;;;5.82;;
13797;SDS011;6970;51.340;3.240;2024-02-28T11:14:25;9.93;;;5.22;;
13797;SDS011;6970;51.340;3.240;2024-02-28T11:17:05;11.95;;;5.90;;
13797;SDS011;6970;51.340;3.240;2024-02-28T11:19:33;10.88;;;6.05;;
13797;SDS011;6970;51.340;3.240;2024-02-28T11:22:02;11.82;;;5.90;;
13797;SDS011;6970;51.340;3.240;2024-02-28T11:24:33;11.55;;;6.47;;
13797;SDS011;6970;51.340;3.240;2024-02-28T11:27:03;11.02;;;5.95;;
13797;SDS011;6970;51.340;3.240;2024-02-28T11:32:03;10.30;;;5.88;;
13797;SDS011;6970;51.340;3.240;2024-02-28T11:34:31;11.00;;;5.30;;
13797;SDS011;6970;51.340;3.240;2024-02-28T11:37:00;10.90;;;5.13;;
13797;SDS011;6970;51.340;3.240;2024-02-28T11:39:32;10.93;;;5.53;;
13797;SDS011;6970;51.340;3.240;2024-02-28T11:42:11;10.25;;;5.05;;
13797;SDS011;6970;51.340;3.240;2024-02-28T11:44:56;13.30;;;4.97;;
13797;SDS011;6970;51.340;3.240;2024-02-28T11:49:59;9.98;;;4.63;;
13797;SDS011;6970;51.340;3.240;2024-02-28T11:52:30;9.68;;;4.43;;
13797;SDS011;6970;51.340;3.240;2024-02-28T11:54:59;10.38;;;4.45;;
13797;SDS011;6970;51.340;3.240;2024-02-28T11:57:30;8.32;;;4.22;;
13797;SDS011;6970;51.340;3.240;2024-02-28T12:02:40;7.40;;;4.00;;
13797;SDS011;6970;51.340;3.240;2024-02-28T12:05:08;9.85;;;4.18;;
13797;SDS011;6970;51.340;3.240;2024-02-28T12:07:36;9.45;;;4.63;;
13797;SDS011;6970;51.340;3.240;2024-02-28T12:17:36;10.38;;;4.93;;
13797;SDS011;6970;51.340;3.240;2024-02-28T12:20:04;10.93;;;5.82;;
13797;SDS011;6970;51.340;3.240;2024-02-28T12:22:35;10.25;;;5.47;;
13797;SDS011;6970;51.340;3.240;2024-02-28T12:25:02;12.20;;;5.43;;
13797;SDS011;6970;51.340;3.240;2024-02-28T12:27:32;13.30;;;5.70;;
13797;SDS011;6970;51.340;3.240;2024-02-28T12:30:00;13.85;;;6.70;;
13797;SDS011;6970;51.340;3.240;2024-02-28T12:32:30;10.20;;;6.22;;
13797;SDS011;6970;51.340;3.240;2024-02-28T12:34:58;12.05;;;6.00;;
13797;SDS011;6970;51.340;3.240;2024-02-28T12:37:25;10.90;;;5.55;;
13797;SDS011;6970;51.340;3.240;2024-02-28T12:39:52;12.88;;;6.38;;
13797;SDS011;6970;51.340;3.240;2024-02-28T12:42:19;12.10;;;5.82;;
13797;SDS011;6970;51.340;3.240;2024-02-28T12:44:53;11.55;;;5.85;;
13797;SDS011;6970;51.340;3.240;2024-02-28T12:47:21;11.82;;;5.47;;
13797;SDS011;6970;51.340;3.240;2024-02-28T12:49:50;10.43;;;5.70;;
13797;SDS011;6970;51.340;3.240;2024-02-28T12:54:47;10.25;;;5.20;;
13797;SDS011;6970;51.340;3.240;2024-02-28T12:57:14;10.32;;;5.30;;
13797;SDS011;6970;51.340;3.240;2024-02-28T12:59:46;13.80;;;5.10;;
13797;SDS011;6970;51.340;3.240;2024-02-28T13:02:17;10.25;;;4.82;;
13797;SDS011;6970;51.340;3.240;2024-02-28T13:04:46;10.85;;;4.90;;
13797;SDS011;6970;51.340;3.240;2024-02-28T13:07:16;10.05;;;5.15;;
13797;SDS011;6970;51.340;3.240;2024-02-28T13:09:45;9.70;;;4.50;;
13797;SDS011;6970;51.340;3.240;2024-02-28T13:12:16;8.57;;;4.43;;
13797;SDS011;6970;51.340;3.240;2024-02-28T13:14:44;10.95;;;5.30;;
13797;SDS011;6970;51.340;3.240;2024-02-28T13:17:14;11.60;;;5.10;;
13797;SDS011;6970;51.340;3.240;2024-02-28T13:19:45;9.75;;;4.07;;
13797;SDS011;6970;51.340;3.240;2024-02-28T13:24:45;9.98;;;4.57;;
13797;SDS011;6970;51.340;3.240;2024-02-28T13:27:14;10.70;;;4.95;;
13797;SDS011;6970;51.340;3.240;2024-02-28T13:32:13;10.13;;;4.40;;
13797;SDS011;6970;51.340;3.240;2024-02-28T13:39:45;8.38;;;4.10;;
13797;SDS011;6970;51.340;3.240;2024-02-28T13:42:12;11.07;;;4.38;;
13797;SDS011;6970;51.340;3.240;2024-02-28T13:47:12;8.70;;;3.72;;
13797;SDS011;6970;51.340;3.240;2024-02-28T13:49:42;8.20;;;4.45;;
13797;SDS011;6970;51.340;3.240;2024-02-28T13:54:42;9.95;;;3.50;;
13797;SDS011;6970;51.340;3.240;2024-02-28T13:57:12;7.55;;;2.95;;
13797;SDS011;6970;51.340;3.240;2024-02-28T13:59:42;7.68;;;3.28;;
13797;SDS011;6970;51.340;3.240;2024-02-28T14:02:09;7.18;;;2.90;;
13797;SDS011;6970;51.340;3.240;2024-02-28T14:07:09;6.15;;;2.63;;
13797;SDS011;6970;51.340;3.240;2024-02-28T14:12:10;7.82;;;2.50;;
13797;SDS011;6970;51.340;3.240;2024-02-28T14:14:39;6.50;;;2.67;;
13797;SDS011;6970;51.340;3.240;2024-02-28T14:17:08;7.78;;;3.67;;
13797;SDS011;6970;51.340;3.240;2024-02-28T14:19:37;6.40;;;2.33;;
13797;SDS011;6970;51.340;3.240;2024-02-28T14:22:04;5.10;;;2.33;;
13797;SDS011;6970;51.340;3.240;2024-02-28T14:24:37;5.50;;;2.45;;
13797;SDS011;6970;51.340;3.240;2024-02-28T14:27:06;5.85;;;2.17;;
13797;SDS011;6970;51.340;3.240;2024-02-28T14:29:36;6.10;;;2.55;;
13797;SDS011;6970;51.340;3.240;2024-02-28T14:32:05;5.85;;;2.22;;
13797;SDS011;6970;51.340;3.240;2024-02-28T14:34:35;7.43;;;2.20;;
13797;SDS011;6970;51.340;3.240;2024-02-28T14:39:32;6.15;;;2.03;;
13797;SDS011;6970;51.340;3.240;2024-02-28T14:42:01;7.47;;;2.20;;
13797;SDS011;6970;51.340;3.240;2024-02-28T14:44:28;7.43;;;2.15;;
13797;SDS011;6970;51.340;3.240;2024-02-28T14:46:56;9.85;;;2.60;;
13797;SDS011;6970;51.340;3.240;2024-02-28T14:49:27;7.00;;;2.13;;
13797;SDS011;6970;51.340;3.240;2024-02-28T14:51:55;8.10;;;2.50;;
13797;SDS011;6970;51.340;3.240;2024-02-28T14:54:22;7.07;;;2.50;;
13797;SDS011;6970;51.340;3.240;2024-02-28T14:56:49;5.40;;;1.80;;
13797;SDS011;6970;51.340;3.240;2024-02-28T14:59:19;7.20;;;2.30;;
13797;SDS011;6970;51.340;3.240;2024-02-28T15:01:46;5.60;;;1.80;;
13797;SDS011;6970;51.340;3.240;2024-02-28T15:04:17;4.93;;;1.80;;
13797;SDS011;6970;51.340;3.240;2024-02-28T15:06:47;7.60;;;2.58;;
13797;SDS011;6970;51.340;3.240;2024-02-28T15:09:15;5.25;;;1.77;;
13797;SDS011;6970;51.340;3.240;2024-02-28T15:11:45;6.80;;;2.10;;
13797;SDS011;6970;51.340;3.240;2024-02-28T15:16:45;5.45;;;2.03;;
13797;SDS011;6970;51.340;3.240;2024-02-28T15:19:12;11.95;;;2.22;;
13797;SDS011;6970;51.340;3.240;2024-02-28T15:21:40;8.25;;;2.13;;
13797;SDS011;6970;51.340;3.240;2024-02-28T15:26:42;5.78;;;2.17;;
13797;SDS011;6970;51.340;3.240;2024-02-28T15:29:15;5.00;;;1.88;;
13797;SDS011;6970;51.340;3.240;2024-02-28T15:31:45;6.80;;;2.00;;
13797;SDS011;6970;51.340;3.240;2024-02-28T15:34:15;7.00;;;2.78;;
13797;SDS011;6970;51.340;3.240;2024-02-28T15:36:43;5.63;;;2.00;;
13797;SDS011;6970;51.340;3.240;2024-02-28T15:39:12;5.57;;;1.95;;
13797;SDS011;6970;51.340;3.240;2024-02-28T15:41:42;5.45;;;2.22;;
13797;SDS011;6970;51.340;3.240;2024-02-28T15:46:43;5.32;;;2.17;;
13797;SDS011;6970;51.340;3.240;2024-02-28T15:49:12;7.53;;;2.63;;
13797;SDS011;6970;51.340;3.240;2024-02-28T15:51:45;8.07;;;2.45;;
13797;SDS011;6970;51.340;3.240;2024-02-28T15:54:14;5.72;;;1.70;;
13797;SDS011;6970;51.340;3.240;2024-02-28T15:56:41;4.40;;;1.60;;
13797;SDS011;6970;51.340;3.240;2024-02-28T15:59:13;5.97;;;2.15;;
13797;SDS011;6970;51.340;3.240;2024-02-28T16:04:12;5.47;;;2.58;;
13797;SDS011;6970;51.340;3.240;2024-02-28T16:06:42;6.57;;;1.90;;
13797;SDS011;6970;51.340;3.240;2024-02-28T16:09:09;5.25;;;1.80;;
13797;SDS011;6970;51.340;3.240;2024-02-28T16:11:36;6.70;;;2.70;;
13797;SDS011;6970;51.340;3.240;2024-02-28T16:16:39;6.40;;;2.47;;
13797;SDS011;6970;51.340;3.240;2024-02-28T16:21:48;5.38;;;2.10;;
13797;SDS011;6970;51.340;3.240;2024-02-28T16:24:20;5.70;;;2.30;;
13797;SDS011;6970;51.340;3.240;2024-02-28T16:29:19;4.93;;;1.90;;
13797;SDS011;6970;51.340;3.240;2024-02-28T16:31:49;5.80;;;2.90;;
13797;SDS011;6970;51.340;3.240;2024-02-28T16:34:17;8.27;;;2.28;;
13797;SDS011;6970;51.340;3.240;2024-02-28T16:36:47;5.75;;;2.28;;
13797;SDS011;6970;51.340;3.240;2024-02-28T16:39:15;7.32;;;2.10;;
13797;SDS011;6970;51.340;3.240;2024-02-28T16:41:50;5.30;;;2.10;;
13797;SDS011;6970;51.340;3.240;2024-02-28T16:46:50;5.28;;;2.58;;
13797;SDS011;6970;51.340;3.240;2024-02-28T16:49:18;9.80;;;3.30;;
13797;SDS011;6970;51.340;3.240;2024-02-28T16:51:45;9.70;;;3.05;;
13797;SDS011;6970;51.340;3.240;2024-02-28T16:54:13;9.45;;;4.10;;
13797;SDS011;6970;51.340;3.240;2024-02-28T16:56:43;8.05;;;3.92;;
13797;SDS011;6970;51.340;3.240;2024-02-28T16:59:12;8.38;;;3.70;;
13797;SDS011;6970;51.340;3.240;2024-02-28T17:01:41;17.10;;;4.57;;
13797;SDS011;6970;51.340;3.240;2024-02-28T17:04:09;9.52;;;4.88;;
13797;SDS011;6970;51.340;3.240;2024-02-28T17:06:37;10.93;;;5.03;;
13797;SDS011;6970;51.340;3.240;2024-02-28T17:09:06;9.40;;;5.15;;
13797;SDS011;6970;51.340;3.240;2024-02-28T17:11:38;12.05;;;5.45;;
13797;SDS011;6970;51.340;3.240;2024-02-28T17:14:06;11.25;;;5.90;;
13797;SDS011;6970;51.340;3.240;2024-02-28T17:16:35;10.95;;;5.40;;
13797;SDS011;6970;51.340;3.240;2024-02-28T17:19:08;11.05;;;5.95;;
13797;SDS011;6970;51.340;3.240;2024-02-28T17:24:07;11.93;;;4.70;;
13797;SDS011;6970;51.340;3.240;2024-02-28T17:26:34;10.25;;;4.95;;
13797;SDS011;6970;51.340;3.240;2024-02-28T17:29:06;10.82;;;4.72;;
13797;SDS011;6970;51.340;3.240;2024-02-28T17:31:36;8.88;;;4.90;;
13797;SDS011;6970;51.340;3.240;2024-02-28T17:36:40;9.70;;;3.90;;
13797;SDS011;6970;51.340;3.240;2024-02-28T17:39:10;8.50;;;3.85;;
13797;SDS011;6970;51.340;3.240;2024-02-28T17:49:12;8.55;;;3.60;;